ASL356 LYBE-EDDB
Flight info
| Callsign | ASL356 |
|---|---|
| Flight time | N/A |
| Altitude | 38000 |
| Route | TISAK DCT TONDO DCT GITAS DCT NAVTI DCT LEGAZ DCT BEFRE T204 NUKRO NUKRO1R |
| Aircraft | A319/M-SDE3FGHIRWY/LB1 |
Departure
| Time | 2026-04-29 16:47 |
|---|---|
| Airport | Belgrade Nikola Tesla Airport (LYBE) |
Arrival
| Time | N/A |
|---|---|
| Airport | Berlin Brandenburg Airport (EDDB) |
| Time | Latitude | Longitude | Altitude | Speed | Heading |
|---|---|---|---|---|---|
| 2026-04-29 16:18 | 44.82015 | 20.29349 | 307 ft | 0 kts | 302° |
| 2026-04-29 16:36 | 44.82011 | 20.29356 | 309 ft | 4 kts | 302° |
| 2026-04-29 16:36 | 44.82000 | 20.29382 | 307 ft | 4 kts | 306° |
| 2026-04-29 16:36 | 44.81982 | 20.29406 | 305 ft | 4 kts | 344° |
| 2026-04-29 16:36 | 44.81959 | 20.29403 | 305 ft | 3 kts | 32° |
| 2026-04-29 16:37 | 44.81937 | 20.29384 | 307 ft | 3 kts | 32° |
| 2026-04-29 16:37 | 44.81933 | 20.29381 | 307 ft | 0 kts | 32° |
| 2026-04-29 16:40 | 44.81939 | 20.29390 | 306 ft | 4 kts | 50° |
| 2026-04-29 16:40 | 44.81941 | 20.29443 | 307 ft | 7 kts | 108° |
| 2026-04-29 16:40 | 44.81957 | 20.29520 | 309 ft | 10 kts | 39° |
| 2026-04-29 16:41 | 44.82027 | 20.29581 | 307 ft | 9 kts | 32° |
| 2026-04-29 16:41 | 44.82072 | 20.29658 | 307 ft | 12 kts | 85° |
| 2026-04-29 16:41 | 44.82032 | 20.29779 | 309 ft | 14 kts | 122° |
| 2026-04-29 16:41 | 44.81972 | 20.29915 | 306 ft | 17 kts | 122° |
| 2026-04-29 16:42 | 44.81901 | 20.30072 | 307 ft | 21 kts | 121° |
| 2026-04-29 16:42 | 44.81826 | 20.30245 | 307 ft | 22 kts | 121° |
| 2026-04-29 16:42 | 44.81738 | 20.30442 | 307 ft | 26 kts | 124° |
| 2026-04-29 16:42 | 44.81634 | 20.30672 | 308 ft | 30 kts | 119° |
| 2026-04-29 16:43 | 44.81554 | 20.30854 | 307 ft | 17 kts | 122° |
| 2026-04-29 16:43 | 44.81484 | 20.31012 | 306 ft | 19 kts | 122° |
| 2026-04-29 16:43 | 44.81412 | 20.31174 | 305 ft | 20 kts | 122° |
| 2026-04-29 16:43 | 44.81334 | 20.31352 | 306 ft | 17 kts | 121° |
| 2026-04-29 16:44 | 44.81265 | 20.31508 | 306 ft | 17 kts | 122° |
| 2026-04-29 16:44 | 44.81197 | 20.31661 | 307 ft | 20 kts | 122° |
| 2026-04-29 16:44 | 44.81122 | 20.31830 | 307 ft | 20 kts | 122° |
| 2026-04-29 16:44 | 44.81050 | 20.31994 | 306 ft | 21 kts | 122° |
| 2026-04-29 16:45 | 44.81004 | 20.32101 | 308 ft | 13 kts | 116° |
| 2026-04-29 16:45 | 44.80999 | 20.32204 | 305 ft | 12 kts | 72° |
| 2026-04-29 16:45 | 44.81068 | 20.32291 | 307 ft | 16 kts | 19° |
| 2026-04-29 16:45 | 44.81184 | 20.32289 | 307 ft | 18 kts | 340° |
| 2026-04-29 16:46 | 44.81234 | 20.32254 | 308 ft | 7 kts | 328° |
| 2026-04-29 16:46 | 44.81273 | 20.32196 | 308 ft | 8 kts | 303° |
| 2026-04-29 16:46 | 44.81275 | 20.32193 | 309 ft | 0 kts | 303° |
| 2026-04-29 16:46 | 44.81323 | 20.32086 | 309 ft | 44 kts | 302° |
| 2026-04-29 16:47 | 44.81603 | 20.31453 | 306 ft | 108 kts | 302° |
| 2026-04-29 16:47 | 44.82095 | 20.30333 | 325 ft | 157 kts | 299° |
| 2026-04-29 16:47 | 44.82675 | 20.29003 | 839 ft | 160 kts | 301° |
| 2026-04-29 16:47 | 44.83299 | 20.27708 | 1478 ft | 161 kts | 315° |
| 2026-04-29 16:48 | 44.84356 | 20.27052 | 1839 ft | 180 kts | 350° |
| 2026-04-29 16:48 | 44.85681 | 20.26817 | 2169 ft | 203 kts | 352° |
| 2026-04-29 16:48 | 44.87154 | 20.26532 | 2686 ft | 221 kts | 352° |
| 2026-04-29 16:48 | 44.88691 | 20.26222 | 3593 ft | 226 kts | 352° |
| 2026-04-29 16:49 | 44.90263 | 20.25894 | 4497 ft | 231 kts | 352° |
| 2026-04-29 16:49 | 44.91847 | 20.25558 | 5408 ft | 236 kts | 352° |
| 2026-04-29 16:49 | 44.93498 | 20.25209 | 5866 ft | 241 kts | 352° |
| 2026-04-29 16:49 | 44.95157 | 20.24856 | 5989 ft | 240 kts | 353° |
| 2026-04-29 16:50 | 44.96809 | 20.24502 | 6007 ft | 241 kts | 352° |
| 2026-04-29 16:50 | 44.98471 | 20.24144 | 6006 ft | 242 kts | 352° |
| 2026-04-29 16:50 | 45.00141 | 20.23783 | 5991 ft | 244 kts | 352° |
| 2026-04-29 16:50 | 45.01815 | 20.23422 | 5997 ft | 242 kts | 352° |
| 2026-04-29 16:51 | 45.03480 | 20.23063 | 5988 ft | 242 kts | 352° |
| 2026-04-29 16:51 | 45.05145 | 20.22727 | 5993 ft | 241 kts | 356° |
| 2026-04-29 16:51 | 45.06844 | 20.22708 | 6104 ft | 258 kts | 1° |
| 2026-04-29 16:51 | 45.08670 | 20.22714 | 6867 ft | 267 kts | 0° |
| 2026-04-29 16:52 | 45.10544 | 20.22714 | 7753 ft | 270 kts | 359° |
| 2026-04-29 16:52 | 45.12439 | 20.22714 | 8689 ft | 273 kts | 358° |
| 2026-04-29 16:52 | 45.14354 | 20.22715 | 9610 ft | 278 kts | 359° |
| 2026-04-29 16:52 | 45.16301 | 20.22716 | 10485 ft | 281 kts | 358° |
| 2026-04-29 16:53 | 45.18274 | 20.22717 | 11295 ft | 286 kts | 358° |
| 2026-04-29 16:53 | 45.20279 | 20.22717 | 12068 ft | 291 kts | 357° |
| 2026-04-29 16:53 | 45.22291 | 20.22715 | 12842 ft | 296 kts | 356° |
| 2026-04-29 16:53 | 45.24365 | 20.22711 | 13614 ft | 301 kts | 356° |
| 2026-04-29 16:54 | 45.26474 | 20.22710 | 14331 ft | 305 kts | 356° |
| 2026-04-29 16:54 | 45.28612 | 20.22711 | 15020 ft | 310 kts | 355° |
| 2026-04-29 16:54 | 45.30780 | 20.22712 | 15718 ft | 314 kts | 354° |
| 2026-04-29 16:54 | 45.32974 | 20.22716 | 16413 ft | 317 kts | 354° |
| 2026-04-29 16:55 | 45.35196 | 20.22719 | 17102 ft | 321 kts | 353° |
| 2026-04-29 16:55 | 45.37441 | 20.22723 | 17849 ft | 324 kts | 353° |
| 2026-04-29 16:55 | 45.39653 | 20.22590 | 18522 ft | 321 kts | 344° |
| 2026-04-29 16:55 | 45.41790 | 20.21794 | 19112 ft | 314 kts | 331° |
| 2026-04-29 16:56 | 45.43740 | 20.20365 | 19415 ft | 320 kts | 319° |
| 2026-04-29 16:56 | 45.45465 | 20.18280 | 19540 ft | 332 kts | 310° |
| 2026-04-29 16:56 | 45.47150 | 20.15920 | 19805 ft | 345 kts | 310° |
| 2026-04-29 16:56 | 45.48885 | 20.13517 | 20333 ft | 350 kts | 311° |
| 2026-04-29 16:57 | 45.50640 | 20.11103 | 20926 ft | 352 kts | 311° |
| 2026-04-29 16:57 | 45.52412 | 20.08676 | 21533 ft | 354 kts | 311° |
| 2026-04-29 16:57 | 45.54192 | 20.06236 | 22142 ft | 356 kts | 311° |
| 2026-04-29 16:57 | 45.55957 | 20.03813 | 22726 ft | 358 kts | 311° |
| 2026-04-29 16:58 | 45.57749 | 20.01345 | 23297 ft | 360 kts | 311° |
| 2026-04-29 16:58 | 45.59551 | 19.98852 | 23834 ft | 361 kts | 311° |
| 2026-04-29 16:58 | 45.61359 | 19.96342 | 24313 ft | 363 kts | 311° |
| 2026-04-29 16:58 | 45.63171 | 19.93828 | 24797 ft | 364 kts | 310° |
| 2026-04-29 16:59 | 45.64987 | 19.91309 | 25284 ft | 365 kts | 310° |
| 2026-04-29 16:59 | 45.66817 | 19.88769 | 25727 ft | 367 kts | 310° |
| 2026-04-29 16:59 | 45.68627 | 19.86256 | 26172 ft | 368 kts | 310° |
| 2026-04-29 16:59 | 45.70467 | 19.83700 | 26626 ft | 370 kts | 310° |
| 2026-04-29 17:00 | 45.72316 | 19.81126 | 27086 ft | 371 kts | 310° |
| 2026-04-29 17:00 | 45.74170 | 19.78543 | 27537 ft | 373 kts | 310° |
| 2026-04-29 17:00 | 45.76033 | 19.75947 | 27976 ft | 374 kts | 311° |
| 2026-04-29 17:00 | 45.77901 | 19.73342 | 28429 ft | 376 kts | 311° |
| 2026-04-29 17:01 | 45.79779 | 19.70718 | 28879 ft | 377 kts | 311° |
| 2026-04-29 17:01 | 45.81661 | 19.68080 | 29300 ft | 379 kts | 311° |
| 2026-04-29 17:01 | 45.83546 | 19.65433 | 29719 ft | 381 kts | 311° |
| 2026-04-29 17:01 | 45.85443 | 19.62768 | 30126 ft | 382 kts | 311° |
| 2026-04-29 17:02 | 45.87324 | 19.60131 | 30474 ft | 384 kts | 311° |
| 2026-04-29 17:02 | 45.89238 | 19.57448 | 30840 ft | 385 kts | 311° |
| 2026-04-29 17:02 | 45.91159 | 19.54750 | 31182 ft | 386 kts | 311° |
| 2026-04-29 17:02 | 45.93078 | 19.52049 | 31506 ft | 388 kts | 311° |
| 2026-04-29 17:03 | 45.95007 | 19.49332 | 31817 ft | 389 kts | 311° |
| 2026-04-29 17:03 | 45.96942 | 19.46604 | 32165 ft | 389 kts | 311° |
| 2026-04-29 17:03 | 45.98869 | 19.43886 | 32613 ft | 387 kts | 311° |
| 2026-04-29 17:03 | 46.00784 | 19.41177 | 33065 ft | 385 kts | 311° |
| 2026-04-29 17:04 | 46.02665 | 19.38513 | 33511 ft | 384 kts | 311° |
| 2026-04-29 17:04 | 46.04571 | 19.35834 | 33938 ft | 383 kts | 313° |
| 2026-04-29 17:04 | 46.06641 | 19.33394 | 34328 ft | 385 kts | 316° |
| 2026-04-29 17:04 | 46.08738 | 19.30998 | 34652 ft | 385 kts | 316° |
| 2026-04-29 17:05 | 46.10837 | 19.28594 | 34948 ft | 386 kts | 316° |
| 2026-04-29 17:05 | 46.12940 | 19.26179 | 35230 ft | 387 kts | 316° |
| 2026-04-29 17:05 | 46.15048 | 19.23751 | 35500 ft | 388 kts | 316° |
| 2026-04-29 17:05 | 46.17163 | 19.21313 | 35796 ft | 390 kts | 317° |
| 2026-04-29 17:06 | 46.19256 | 19.18901 | 36024 ft | 391 kts | 317° |
| 2026-04-29 17:06 | 46.21390 | 19.16442 | 36274 ft | 393 kts | 317° |
| 2026-04-29 17:06 | 46.23525 | 19.13977 | 36523 ft | 394 kts | 317° |
| 2026-04-29 17:06 | 46.25666 | 19.11504 | 36770 ft | 395 kts | 317° |
| 2026-04-29 17:07 | 46.27811 | 19.09025 | 36999 ft | 396 kts | 317° |
| 2026-04-29 17:07 | 46.29234 | 19.07376 | 37156 ft | 396 kts | 317° |
| 2026-04-29 17:07 | 46.32118 | 19.04028 | 37479 ft | 398 kts | 318° |
| 2026-04-29 17:07 | 46.34277 | 19.01520 | 37716 ft | 398 kts | 318° |
| 2026-04-29 17:08 | 46.36438 | 18.99005 | 37947 ft | 399 kts | 318° |
| 2026-04-29 17:08 | 46.38577 | 18.96517 | 38144 ft | 401 kts | 318° |
| 2026-04-29 17:08 | 46.42917 | 18.91469 | 38215 ft | 399 kts | 318° |
| 2026-04-29 17:09 | 46.47257 | 18.86408 | 38193 ft | 401 kts | 318° |
| 2026-04-29 17:09 | 46.51607 | 18.81328 | 38198 ft | 401 kts | 318° |
| 2026-04-29 17:10 | 46.55926 | 18.76275 | 38193 ft | 401 kts | 318° |
| 2026-04-29 17:10 | 46.60266 | 18.71177 | 38193 ft | 401 kts | 318° |
| 2026-04-29 17:11 | 46.64603 | 18.66066 | 38187 ft | 401 kts | 318° |
| 2026-04-29 17:11 | 46.68940 | 18.60954 | 38196 ft | 401 kts | 318° |
| 2026-04-29 17:12 | 46.73278 | 18.55826 | 38205 ft | 402 kts | 318° |
| 2026-04-29 17:12 | 46.76883 | 18.51552 | 38201 ft | 402 kts | 318° |
| 2026-04-29 17:13 | 46.81931 | 18.45574 | 38196 ft | 402 kts | 318° |
| 2026-04-29 17:13 | 46.86272 | 18.40412 | 38197 ft | 402 kts | 318° |
| 2026-04-29 17:14 | 46.90611 | 18.35236 | 38194 ft | 402 kts | 318° |
| 2026-04-29 17:14 | 46.94945 | 18.30052 | 38183 ft | 403 kts | 318° |
| 2026-04-29 17:15 | 46.99255 | 18.24897 | 38208 ft | 403 kts | 318° |
| 2026-04-29 17:15 | 47.03593 | 18.19679 | 38196 ft | 404 kts | 318° |
| 2026-04-29 17:16 | 47.07969 | 18.14514 | 38198 ft | 404 kts | 320° |
| 2026-04-29 17:16 | 47.12480 | 18.09568 | 38195 ft | 405 kts | 321° |
| 2026-04-29 17:17 | 47.17019 | 18.04659 | 38203 ft | 405 kts | 321° |
| 2026-04-29 17:17 | 47.21506 | 17.99735 | 38192 ft | 405 kts | 321° |
| 2026-04-29 17:18 | 47.26006 | 17.94744 | 38225 ft | 405 kts | 321° |
| 2026-04-29 17:18 | 47.30496 | 17.89738 | 38220 ft | 405 kts | 320° |
| 2026-04-29 17:19 | 47.34982 | 17.84721 | 38226 ft | 405 kts | 320° |
| 2026-04-29 17:19 | 47.39444 | 17.79741 | 38219 ft | 405 kts | 321° |
| 2026-04-29 17:20 | 47.43937 | 17.74721 | 38205 ft | 405 kts | 321° |
| 2026-04-29 17:20 | 47.48421 | 17.69688 | 38203 ft | 405 kts | 321° |
| 2026-04-29 17:21 | 47.52908 | 17.64639 | 38208 ft | 405 kts | 320° |
| 2026-04-29 17:21 | 47.57354 | 17.59613 | 38210 ft | 405 kts | 320° |
| 2026-04-29 17:22 | 47.61836 | 17.54542 | 38211 ft | 405 kts | 320° |
| 2026-04-29 17:22 | 47.66314 | 17.49484 | 38215 ft | 405 kts | 320° |
| 2026-04-29 17:23 | 47.70801 | 17.44394 | 38203 ft | 406 kts | 321° |
| 2026-04-29 17:23 | 47.75283 | 17.39290 | 38248 ft | 406 kts | 321° |
| 2026-04-29 17:24 | 47.79744 | 17.34210 | 38251 ft | 407 kts | 321° |
| 2026-04-29 17:24 | 47.84240 | 17.29084 | 38243 ft | 407 kts | 321° |
| 2026-04-29 17:25 | 47.88729 | 17.23945 | 38248 ft | 407 kts | 321° |
| 2026-04-29 17:25 | 47.93222 | 17.18785 | 38243 ft | 408 kts | 321° |
| 2026-04-29 17:26 | 47.97685 | 17.13653 | 38225 ft | 408 kts | 321° |
| 2026-04-29 17:26 | 48.02179 | 17.08472 | 38230 ft | 408 kts | 321° |
| 2026-04-29 17:27 | 48.06678 | 17.03273 | 38245 ft | 409 kts | 321° |
| 2026-04-29 17:27 | 48.11183 | 16.98061 | 38245 ft | 409 kts | 321° |
| 2026-04-29 17:28 | 48.15657 | 16.92869 | 38244 ft | 410 kts | 321° |
| 2026-04-29 17:28 | 48.20159 | 16.87627 | 38250 ft | 410 kts | 321° |
| 2026-04-29 17:29 | 48.24661 | 16.82372 | 38273 ft | 410 kts | 321° |
| 2026-04-29 17:29 | 48.28407 | 16.78007 | 38273 ft | 410 kts | 321° |
| 2026-04-29 17:30 | 48.33674 | 16.71850 | 38287 ft | 411 kts | 321° |
| 2026-04-29 17:30 | 48.38155 | 16.66592 | 38276 ft | 411 kts | 321° |
| 2026-04-29 17:31 | 48.42666 | 16.61283 | 38287 ft | 412 kts | 321° |
| 2026-04-29 17:31 | 48.47172 | 16.55957 | 38272 ft | 412 kts | 321° |
| 2026-04-29 17:32 | 48.51682 | 16.50626 | 38291 ft | 412 kts | 321° |
| 2026-04-29 17:32 | 48.56161 | 16.45324 | 38310 ft | 412 kts | 321° |
| 2026-04-29 17:33 | 48.60671 | 16.39967 | 38301 ft | 413 kts | 321° |
| 2026-04-29 17:33 | 48.65179 | 16.34598 | 38303 ft | 413 kts | 321° |
| 2026-04-29 17:34 | 48.69694 | 16.29212 | 38288 ft | 413 kts | 321° |
| 2026-04-29 17:34 | 48.74202 | 16.23816 | 38301 ft | 413 kts | 321° |
| 2026-04-29 17:35 | 48.81577 | 16.17248 | 38315 ft | 414 kts | 334° |
| 2026-04-29 17:36 | 48.86787 | 16.13543 | 38330 ft | 413 kts | 334° |
| 2026-04-29 17:36 | 48.91983 | 16.09812 | 38322 ft | 413 kts | 334° |
| 2026-04-29 17:37 | 48.97174 | 16.06075 | 38323 ft | 412 kts | 334° |
| 2026-04-29 17:37 | 49.02328 | 16.02371 | 38281 ft | 412 kts | 334° |
| 2026-04-29 17:38 | 49.07518 | 15.98632 | 38291 ft | 413 kts | 334° |
| 2026-04-29 17:38 | 49.12716 | 15.94886 | 38308 ft | 413 kts | 334° |
| 2026-04-29 17:39 | 49.17914 | 15.91128 | 38332 ft | 413 kts | 334° |
| 2026-04-29 17:39 | 49.23074 | 15.87389 | 38329 ft | 413 kts | 334° |
| 2026-04-29 17:40 | 49.28266 | 15.83608 | 38351 ft | 413 kts | 334° |
| 2026-04-29 17:40 | 49.33461 | 15.79827 | 38362 ft | 413 kts | 334° |
| 2026-04-29 17:41 | 49.38661 | 15.76030 | 38312 ft | 415 kts | 334° |
| 2026-04-29 17:41 | 49.43881 | 15.72220 | 38328 ft | 416 kts | 334° |
| 2026-04-29 17:42 | 49.48230 | 15.69032 | 38332 ft | 417 kts | 334° |
| 2026-04-29 17:42 | 49.53527 | 15.65140 | 38337 ft | 418 kts | 334° |